• Join FlightAware (Why Join?)
  • Login
  • US Flag 
Rudolph Flight #1: Arrived! 
03:03AM EST


 

Airport Tracker/Info


-or-


 

Live Flight TrackerFlight Track Log ✈ NGF11Z ✈ 11-Aug-2013 ✈ KACV - KRHV

Flight Track Log - Related Links

Times and Time Zones

All times are in EDT time to prevent confusion due to time zone crossing. See the NGF11Z flight status page for this flight to view local times or setup timezone preferences in your user account.

Time Position Orientation Groundspeed Altitude Reporting Facility
EDT Latitude Longitude Course Direction KTS MPH feet Rate Location/Type
04:44PM 40.7984 -123.9893 196° South  Level Estimated
04:45PM 40.7761 -124.0335 236° Southwest  Level FlightAware Approximate
04:45PM 40.9847 -124.1136 150° Southeast 90 104 600  Level Seattle Center
04:46PM 40.7538 -124.0776 236° Southwest  Level FlightAware Approximate
04:46PM 40.9889 -124.1436 280° West 92 106 1,200  Level Seattle Center
04:47PM 40.7183 -124.0528 150° Southeast  Level Estimated
04:47PM 40.9711 -124.1836 240° Southwest 101 116 2,200  Level Seattle Center
04:48PM 40.6875 -124.0868 220° Southwest  Level FlightAware Approximate
04:48PM 40.9675 -124.2181 262° West 99 114 2,800  Level Seattle Center
04:49PM 40.6522 -124.0616 180° South  Level Estimated
04:49PM 40.9342 -124.2256 190° South 112 129 3,500  Level Seattle Center
04:50PM 40.6169 -124.0365 150° Southeast  Level Estimated
04:50PM 40.9036 -124.2339 192° South 114 131 4,300  Level Seattle Center
04:51PM 40.8739 -124.2414 191° South 112 129 4,900 540 Climbing Seattle Center
04:52PM 40.8428 -124.2453 185° South 111 128 5,500 540 Climbing Seattle Center
04:53PM 40.8136 -124.2486 185° South 109 125 6,100 540 Climbing Seattle Center
04:54PM 40.7861 -124.2339 158° South 108 124 6,600 480 Climbing Seattle Center
04:55PM 40.7611 -124.2086 143° Southeast 110 127 7,100 480 Climbing Seattle Center
04:56PM 40.7333 -124.1897 153° Southeast 111 128 7,600 480 Climbing Seattle Center
04:57PM 40.7019 -124.1617 146° Southeast 113 130 8,200 480 Climbing Seattle Center
04:58PM 40.6728 -124.1436 155° Southeast 113 130 8,600 420 Climbing Seattle Center
04:59PM 40.6453 -124.1242 152° Southeast 113 130 9,100 420 Climbing Seattle Center
05:00PM 40.6175 -124.1056 153° Southeast 113 130 9,500 420 Climbing Seattle Center
05:01PM 40.5906 -124.0858 151° Southeast 113 130 10,000 420 Climbing Seattle Center
05:02PM 40.5647 -124.0653 149° Southeast 110 127 10,400 360 Climbing Seattle Center
05:03PM 40.5378 -124.0489 155° Southeast 107 123 10,800 240 Climbing Seattle Center
05:04PM 40.5100 -124.0275 150° Southeast 111 128 10,900 60 Climbing Seattle Center
05:05PM 40.4769 -124.0047 152° Southeast 122 140 11,000  Climbing Seattle Center
05:06PM 40.4417 -123.9803 152° Southeast 134 154 11,000  Level Seattle Center
05:07PM 40.4072 -123.9511 147° Southeast 141 162 11,100  Climbing Seattle Center
05:08PM 40.3717 -123.9264 152° Southeast 144 166 11,100  Level Seattle Center
05:09PM 40.3378 -123.8981 147° Southeast 144 166 11,100 -60 Level Seattle Center
05:10PM 40.3039 -123.8683 146° Southeast 144 166 11,000 -60 Descending Seattle Center
05:11PM 40.2603 -123.8347 150° Southeast 148 170 11,000  Level Seattle Center
05:12PM 40.2239 -123.8086 151° Southeast 149 171 11,000 -60 Level Seattle Center
05:13PM 40.1853 -123.7894 159° South 149 171 10,900 -60 Descending Seattle Center
05:14PM 40.1486 -123.7658 154° Southeast 148 170 10,900  Level Seattle Center
05:15PM 40.1139 -123.7361 147° Southeast 148 170 10,900  Level Seattle Center
05:16PM 40.0781 -123.7108 152° Southeast 147 169 11,000 60 Climbing Seattle Center
05:17PM 40.0431 -123.6881 154° Southeast 144 166 11,100  Climbing Seattle Center
05:18PM 40.0086 -123.6631 151° Southeast 143 165 11,100 -60 Level Seattle Center
05:19PM 39.9731 -123.6336 148° Southeast 146 168 11,000 -60 Descending Seattle Center
05:20PM 39.9364 -123.6081 152° Southeast 148 170 11,000  Level Seattle Center
05:21PM 39.8992 -123.5847 154° Southeast 148 170 11,000  Level Seattle Center
05:22PM 39.8642 -123.5589 150° Southeast 147 169 11,000  Level Seattle Center
05:23PM 39.8225 -123.5258 149° Southeast 146 168 11,100  Climbing Seattle Center
05:24PM 39.7864 -123.5050 156° South 144 166 11,100  Level Seattle Center
05:25PM 39.7503 -123.4800 152° Southeast 145 167 11,100 -60 Level Seattle Center
05:26PM 39.7153 -123.4528 149° Southeast 146 168 11,000 -120 Descending Seattle Center
05:28PM 39.6647 -123.4122 148° Southeast 151 174 10,900 -60 Descending Oakland Center
05:29PM 39.6289 -123.3847 149° Southeast 150 173 10,900  Level Oakland Center
05:30PM 39.5931 -123.3606 153° Southeast 146 168 11,000  Climbing Oakland Center
05:31PM 39.5558 -123.3403 157° South 145 167 11,000  Level Oakland Center
05:32PM 39.5203 -123.3153 152° Southeast 146 168 11,000 -60 Level Oakland Center
05:33PM 39.4783 -123.2803 147° Southeast 148 170 10,900  Descending Oakland Center
05:34PM 39.4431 -123.2506 147° Southeast 150 173 11,000  Climbing Oakland Center
05:35PM 39.4083 -123.2250 150° Southeast 145 167 11,000  Level Oakland Center
05:36PM 39.3717 -123.2061 158° South 142 163 11,100  Climbing Oakland Center
05:37PM 39.3358 -123.1819 152° Southeast 145 167 11,100  Level Oakland Center
05:38PM 39.3011 -123.1550 149° Southeast 146 168 11,100 -60 Level Oakland Center
05:39PM 39.2636 -123.1289 152° Southeast 150 173 11,000 -60 Descending Oakland Center
05:40PM 39.2203 -123.1014 154° Southeast 147 169 11,000 -60 Level Oakland Center
05:41PM 39.1833 -123.0772 153° Southeast 150 173 10,900  Descending Oakland Center
05:42PM 39.1469 -123.0519 152° Southeast 148 170 11,000  Climbing Oakland Center
05:43PM 39.1125 -123.0267 150° Southeast 145 167 11,000  Level Oakland Center
05:44PM 39.0778 -123.0011 150° Southeast 144 166 11,100  Climbing Oakland Center
05:45PM 39.0450 -122.9700 144° Southeast 146 168 11,000 -60 Descending Oakland Center
05:46PM 39.0097 -122.9439 150° Southeast 145 167 11,000  Level Oakland Center
05:47PM 38.9661 -122.9153 153° Southeast 146 168 11,000 -60 Level Oakland Center
05:48PM 38.9272 -122.8944 157° South 149 171 10,900 -60 Descending Oakland Center
05:49PM 38.8911 -122.8683 151° Southeast 149 171 10,900  Level Oakland Center
05:50PM 38.8583 -122.8408 147° Southeast 145 167 11,000 60 Climbing Oakland Center
05:51PM 38.8231 -122.8208 156° South 144 166 11,100  Climbing Oakland Center
05:53PM 38.7856 -122.8056 162° South 144 166 11,100  Level Oakland Center
05:54PM 38.7475 -122.7897 162° South 146 168 11,100 -180 Level Oakland Center
05:55PM 38.7031 -122.7594 152° Southeast 157 181 10,800 -300 Descending Oakland Center
05:56PM 38.6619 -122.7353 155° Southeast 166 191 10,500 -360 Descending Oakland Center
05:57PM 38.6178 -122.7133 159° South 172 198 10,100 -540 Descending Oakland Center
05:58PM 38.5753 -122.6856 153° Southeast 174 200 9,500 -480 Descending Oakland Center
05:59PM 38.5303 -122.6622 158° South 176 203 9,200 -240 Descending Oakland Center
06:00PM 38.4886 -122.6394 157° South 166 191 9,100  Descending Oakland Center
06:01PM 38.4494 -122.6189 158° South 155 178 9,200  Climbing Oakland Center
06:02PM 38.4036 -122.5931 156° South 155 178 9,200 -300 Level Oakland Center
06:03PM 38.3628 -122.5686 155° Southeast 163 188 8,700 -540 Descending Oakland Center
06:04PM 38.3172 -122.5433 156° South 176 203 8,200 -540 Descending Oakland Center
06:05PM 38.2714 -122.5256 163° South 174 200 7,600 -600 Descending Oakland Center
06:06PM 38.2236 -122.5078 164° South 177 204 7,000 -660 Descending Oakland Center
06:07PM 38.1775 -122.4789 154° Southeast 182 209 6,300 -780 Descending Oakland Center
06:08PM 38.1353 -122.4447 148° Southeast 181 208 5,500 -600 Descending Oakland Center
06:09PM 38.0908 -122.4200 156° South 175 201 5,100 -240 Descending Oakland Center
06:10PM 38.0406 -122.3975 161° South 162 186 5,100  Level Oakland Center
06:11PM 38.0006 -122.3781 159° South 157 181 5,100  Level Oakland Center
06:12PM 37.9658 -122.3450 143° Southeast 155 178 5,100 240 Level Oakland Center
06:13PM 37.9358 -122.3117 139° Southeast 150 173 5,700 420 Climbing Oakland Center
06:14PM 37.9169 -122.2833 130° Southeast 120 138 6,000 180 Climbing Oakland Center
06:15PM 37.8950 -122.2486 129° Southeast 119 137 6,100 60 Climbing Oakland Center
06:16PM 37.8667 -122.2167 138° Southeast 150 173 6,200  Climbing Northern Cal TRACON
06:17PM 37.8333 -122.1833 142° Southeast 158 182 6,200 -60 Level Northern Cal TRACON
06:18PM 37.8000 -122.1333 130° Southeast 159 183 6,100  Descending Northern Cal TRACON
06:19PM 37.7833 -122.1000 122° Southeast 156 180 6,200  Climbing Northern Cal TRACON
06:20PM 37.7667 -122.0500 113° Southeast 157 181 6,100 -60 Descending Northern Cal TRACON
06:21PM 37.7500 -122.0000 113° Southeast 155 178 6,100  Level Northern Cal TRACON
06:22PM 37.7167 -121.9500 130° Southeast 153 176 6,200  Climbing Northern Cal TRACON
06:23PM 37.7000 -121.9000 113° Southeast 154 177 6,100 -120 Descending Northern Cal TRACON
06:24PM 37.6667 -121.8667 142° Southeast 152 175 6,000  Descending Northern Cal TRACON
06:25PM 37.6192 -121.8408 157° South 150 173 6,100  Climbing Oakland Center
06:26PM 37.5836 -121.8122 147° Southeast 151 174 6,100  Level Oakland Center
06:27PM 37.5403 -121.7819 151° Southeast 149 171 6,100 -360 Level Oakland Center
06:28PM 37.4947 -121.7897 188° South 164 189 5,400 -540 Descending Oakland Center
06:29PM 37.4506 -121.8072 197° South 167 192 5,000 -540 Descending Oakland Center
06:31PM 37.4169 -121.8186 195° South 133 153 4,300 -780 Descending Oakland Center
06:32PM 37.3861 -121.8064 163° South 125 144 3,500 -780 Descending Oakland Center
06:33PM 37.3644 -121.7792 135° Southeast 117 135 2,700 -720 Descending Oakland Center
06:34PM 37.3350 -121.7636 157° South 113 130 2,100 -600 Descending Oakland Center
06:35PM 37.3058 -121.7803 204° Southwest 126 145 1,500 -600 Descending Oakland Center
06:36PM 37.3136 -121.8044 292° West 95 109 900 -600 Descending Oakland Center
06:37PM 37.3289 -121.8183 324° Northwest 79 91 300 -600 Descending Oakland Center